Green Ridge, Missouri
Current Conditions -  °F | °C
As of 1:58 PM on Saturday 20 Dec 2014 (Local Time) from KSZL Reporting Station
Overcast Overcast  
Wind Chill: 33°   Ceiling: 1100
Heat Index: 39°   Visibility: 10mi
Dew Point: 35°   Wind: 10mph
Humidity: 85%   Direction: 220°SW
Pressure: 30.16"   Gusts: NA
Location:  38.62°N, 93.41°W
Report Text: KSZL 201958Z AUTO 22009KT 10SM OVC011 04/02 A3016 RMK AO2 SLP222 T00410018 $
Loading
Personal Weather Stations






























Interactive Weather Map New forecast layout! Learn more

10-Day Weather Forecast

Advertisements
Track Severe Weather on mobile